Map

Track Data

SID SEASON NUMBER BASIN SUBBASIN NAME ISO_TIME NATURE LAT LON WMO_WIND WMO_PRES WMO_AGENCY TRACK_TYPE DIST2LAND LANDFALL IFLAG USA_AGENCY USA_ATCF_ID USA_LAT USA_LON USA_RECORD USA_STATUS USA_WIND USA_PRES USA_SSHS USA_R34_NE USA_R34_SE USA_R34_SW USA_R34_NW USA_R50_NE USA_R50_SE USA_R50_SW USA_R50_NW USA_R64_NE USA_R64_SE USA_R64_SW USA_R64_NW USA_POCI USA_ROCI USA_RMW USA_EYE TOKYO_LAT TOKYO_LON TOKYO_GRADE TOKYO_WIND TOKYO_PRES TOKYO_R50_DIR TOKYO_R50_LONG TOKYO_R50_SHORT TOKYO_R30_DIR TOKYO_R30_LONG TOKYO_R30_SHORT TOKYO_LAND CMA_LAT CMA_LON CMA_CAT CMA_WIND CMA_PRES HKO_LAT HKO_LON HKO_CAT HKO_WIND HKO_PRES NEWDELHI_LAT NEWDELHI_LON NEWDELHI_GRADE NEWDELHI_WIND NEWDELHI_PRES NEWDELHI_CI NEWDELHI_DP NEWDELHI_POCI REUNION_LAT REUNION_LON REUNION_TYPE REUNION_WIND REUNION_PRES REUNION_TNUM REUNION_CI REUNION_RMW REUNION_R34_NE REUNION_R34_SE REUNION_R34_SW REUNION_R34_NW REUNION_R50_NE REUNION_R50_SE REUNION_R50_SW REUNION_R50_NW REUNION_R64_NE REUNION_R64_SE REUNION_R64_SW REUNION_R64_NW BOM_LAT BOM_LON BOM_TYPE BOM_WIND BOM_PRES BOM_TNUM BOM_CI BOM_RMW BOM_R34_NE BOM_R34_SE BOM_R34_SW BOM_R34_NW BOM_R50_NE BOM_R50_SE BOM_R50_SW BOM_R50_NW BOM_R64_NE BOM_R64_SE BOM_R64_SW BOM_R64_NW BOM_ROCI BOM_POCI BOM_EYE BOM_POS_METHOD BOM_PRES_METHOD NADI_LAT NADI_LON NADI_CAT NADI_WIND NADI_PRES WELLINGTON_LAT WELLINGTON_LON WELLINGTON_WIND WELLINGTON_PRES DS824_LAT DS824_LON DS824_STAGE DS824_WIND DS824_PRES TD9636_LAT TD9636_LON TD9636_STAGE TD9636_WIND TD9636_PRES TD9635_LAT TD9635_LON TD9635_WIND TD9635_PRES TD9635_ROCI NEUMANN_LAT NEUMANN_LON NEUMANN_CLASS NEUMANN_WIND NEUMANN_PRES MLC_LAT MLC_LON MLC_CLASS MLC_WIND MLC_PRES USA_GUST BOM_GUST BOM_GUST_PER REUNION_GUST REUNION_GUST_PER USA_SEAHGT USA_SEARAD_NE USA_SEARAD_SE USA_SEARAD_SW USA_SEARAD_NW STORM_SPEED STORM_DIR
1946086N12153 1946 23 WP MM BARBARA 1946-03-27 00:00:00 TS 12.0000 153.300 main 1668 1666 O________OOO__ jtwc_wp WP011946 12.0000 153.300 45 0 12.0000 153.300 TC 45 12.0000 153.300 2 45 12.0000 153.300 45 1000 180 10 303
1946086N12153 1946 23 WP MM BARBARA 1946-03-27 03:00:00 TS 12.2631 152.890 main 1695 1692 P________PPP__ WP011946 12.3002 152.870 50 0 12.3002 152.870 TC 50 12.1520 152.950 2 51 12.3002 152.870 50 998 210 9 301
1946086N12153 1946 23 WP MM BARBARA 1946-03-27 06:00:00 TS 12.4482 152.528 main 1701 1701 O________OPO__ jtwc_wp WP011946 12.5000 152.500 55 0 12.5000 152.500 TC 55 12.2930 152.611 2 57 12.5000 152.500 55 996 240 7 291
1946086N12153 1946 23 WP MM BARBARA 1946-03-27 09:00:00 TS 12.5062 152.243 main 1709 1707 P________PPP__ WP011946 12.5374 152.227 62 0 12.5374 152.227 TC 62 12.4125 152.290 2 63 12.5374 152.227 62 993 210 5 276
1946086N12153 1946 23 WP MM BARBARA 1946-03-27 12:00:00 TS 12.5000 152.000 main 1707 1705 O________OOO__ jtwc_wp WP011946 12.5000 152.000 70 1 12.5000 152.000 TC 70 12.5000 152.000 3 70 12.5000 152.000 70 990 180 5 270
1946086N12153 1946 23 WP MM BARBARA 1946-03-27 15:00:00 TS 12.5067 151.743 main 1703 1697 P________PPP__ WP011946 12.4925 151.742 70 1 12.4925 151.742 TC 70 12.5495 151.746 3 70 12.4925 151.742 70 986 210 5 272
1946086N12153 1946 23 WP MM BARBARA 1946-03-27 18:00:00 TS 12.5181 151.505 main 1697 1691 O________OPO__ jtwc_wp WP011946 12.5000 151.500 70 1 12.5000 151.500 TC 70 12.5722 151.520 3 70 12.5000 151.500 70 983 240 4 276
1946086N12153 1946 23 WP MM BARBARA 1946-03-27 21:00:00 TS 12.5528 151.302 main 1702 1696 P________PPP__ WP011946 12.5424 151.300 70 1 12.5424 151.300 TC 70 12.5839 151.309 3 70 12.5424 151.300 70 978 240 4 282
1946086N12153 1946 23 WP MM BARBARA 1946-03-28 00:00:00 TS 12.6000 151.100 main 1696 1691 O________OOO__ jtwc_wp WP011946 12.6000 151.100 70 1 12.6000 151.100 TC 70 12.6000 151.100 4 70 12.6000 151.100 70 974 240 4 283
1946086N12153 1946 23 WP MM BARBARA 1946-03-28 03:00:00 TS 12.6513 150.854 main 1702 1695 P________PPP__ WP011946 12.6500 150.850 80 1 12.6500 150.850 TC 80 12.6550 150.867 4 77 12.6500 150.850 80 971 270 5 282
1946086N12153 1946 23 WP MM BARBARA 1946-03-28 06:00:00 TS 12.7037 150.609 main 1695 1691 O________OPO__ jtwc_wp WP011946 12.7000 150.600 90 2 12.7000 150.600 TC 90 12.7150 150.635 4 85 12.7000 150.600 90 968 300 5 283
1946086N12153 1946 23 WP MM BARBARA 1946-03-28 09:00:00 TS 12.7544 150.391 main 1701 1697 P________PPP__ WP011946 12.7500 150.385 95 2 12.7500 150.385 TC 95 12.7675 150.411 4 92 12.7500 150.385 95 966 270 4 284
1946086N12153 1946 23 WP MM BARBARA 1946-03-28 12:00:00 TS 12.8000 150.200 main 1697 1695 O________OOO__ jtwc_wp WP011946 12.8000 150.200 100 3 12.8000 150.200 TC 100 12.8000 150.200 4 100 12.8000 150.200 100 965 240 3 289
1946086N12153 1946 23 WP MM BARBARA 1946-03-28 15:00:00 TS 12.8666 150.056 main 1706 1703 P________PPP__ WP011946 12.8725 150.050 97 3 12.8725 150.050 TC 97 12.8488 150.072 4 96 12.8725 150.050 97 965 270 3 288
1946086N12153 1946 23 WP MM BARBARA 1946-03-28 18:00:00 TS 12.8923 149.912 main 1703 1701 O________OPO__ jtwc_wp WP011946 12.9000 149.900 95 2 12.9000 149.900 TC 95 12.8691 149.948 4 92 12.9000 149.900 95 966 300 3 275
1946086N12153 1946 23 WP MM BARBARA 1946-03-28 21:00:00 TS 12.8918 149.742 main 1699 1674 P________PPP__ WP011946 12.9124 149.730 90 2 12.9124 149.730 TC 90 12.8298 149.775 4 88 12.9124 149.730 90 967 270 4 244
1946086N12153 1946 23 WP MM BARBARA 1946-03-29 00:00:00 TS 12.7000 149.500 main 1674 1603 O________OOO__ jtwc_wp WP011946 12.7000 149.500 85 2 12.7000 149.500 TC 85 12.7000 149.500 4 85 12.7000 149.500 85 968 240 10 213
1946086N12153 1946 23 WP MM BARBARA 1946-03-29 03:00:00 TS 12.0770 149.197 main 1603 1531 P________PPP__ WP011946 11.9847 149.232 85 2 11.9847 149.232 TC 85 12.3539 149.092 4 83 11.9847 149.232 85 969 240 15 211
1946086N12153 1946 23 WP MM BARBARA 1946-03-29 06:00:00 TS 11.4580 148.744 main 1530 1503 O________OPO__ jtwc_wp WP011946 11.3000 148.800 85 2 11.3000 148.800 TC 85 11.9321 148.577 4 82 11.3000 148.800 85 971 240 14 233
1946086N12153 1946 23 WP MM BARBARA 1946-03-29 09:00:00 TS 11.2543 148.082 main 1503 1490 P________PPP__ WP011946 11.1576 148.118 82 1 11.1576 148.118 TC 82 11.5443 147.973 4 81 11.1576 148.118 82 973 270 14 264
1946086N12153 1946 23 WP MM BARBARA 1946-03-29 12:00:00 TS 11.3000 147.300 main 1501 1501 O________OOO__ jtwc_wp WP011946 11.3000 147.300 80 1 11.3000 147.300 TC 80 11.3000 147.300 4 80 11.3000 147.300 80 976 300 16 278
1946086N12153 1946 23 WP MM BARBARA 1946-03-29 15:00:00 TS 11.4822 146.515 main 1523 1523 P________PPP__ WP011946 11.5274 146.500 77 1 11.5274 146.500 TC 77 11.3466 146.559 4 77 11.5274 146.500 77 977 330 16 286
1946086N12153 1946 23 WP MM BARBARA 1946-03-29 18:00:00 TS 11.7359 145.715 main 1549 1549 O________OPO__ jtwc_wp WP011946 11.8000 145.700 75 1 11.8000 145.700 TC 75 11.5435 145.760 4 75 11.8000 145.700 75 979 360 16 286
1946086N12153 1946 23 WP MM BARBARA 1946-03-29 21:00:00 TS 11.9283 144.929 main 1579 1579 P________PPP__ WP011946 11.9649 144.920 72 1 11.9649 144.920 TC 72 11.8185 144.956 4 72 11.9649 144.920 72 980 360 15 284
1946086N12153 1946 23 WP MM BARBARA 1946-03-30 00:00:00 TS 12.1000 144.200 main 1612 1612 O________OOO__ jtwc_wp WP011946 12.1000 144.200 70 1 12.1000 144.200 TC 70 12.1000 144.200 4 70 12.1000 144.200 70 981 360 14 284
1946086N12153 1946 23 WP MM BARBARA 1946-03-30 03:00:00 TS 12.2509 143.573 main 1647 1647 P________PPP__ WP011946 12.2423 143.570 72 1 12.2423 143.570 TC 72 12.2768 143.583 4 72 12.2423 143.570 72 980 390 12 285
1946086N12153 1946 23 WP MM BARBARA 1946-03-30 06:00:00 TS 12.4121 143.005 main 1655 1652 O________OPO__ jtwc_wp WP011946 12.4000 143.000 75 1 12.4000 143.000 TC 75 12.4483 143.019 4 75 12.4000 143.000 75 980 420 11 288
1946086N12153 1946 23 WP MM BARBARA 1946-03-30 09:00:00 TS 12.5993 142.472 main 1660 1657 P________PPP__ WP011946 12.5921 142.472 77 1 12.5921 142.472 TC 77 12.6206 142.471 4 77 12.5921 142.472 77 978 390 11 290
1946086N12153 1946 23 WP MM BARBARA 1946-03-30 12:00:00 TS 12.8000 141.900 main 1661 1650 O________OOO__ jtwc_wp WP011946 12.8000 141.900 80 1 12.8000 141.900 TC 80 12.8000 141.900 4 80 12.8000 141.900 80 977 360 13 288
1946086N12153 1946 23 WP MM BARBARA 1946-03-30 15:00:00 TS 12.9994 141.177 main 1653 1617 P________PPP__ WP011946 13.0002 141.158 82 1 13.0002 141.158 TC 82 12.9970 141.234 4 82 13.0002 141.158 82 975 330 15 286
1946086N12153 1946 23 WP MM BARBARA 1946-03-30 18:00:00 TS 13.2001 140.436 main 1607 1545 O________OPO__ jtwc_wp WP011946 13.2000 140.400 85 2 13.2000 140.400 TC 85 13.2003 140.543 4 85 13.2000 140.400 85 973 300 14 287
1946086N12153 1946 23 WP MM BARBARA 1946-03-30 21:00:00 TS 13.4006 139.791 main 1545 1485 P________PPP__ WP011946 13.3997 139.770 87 2 13.3997 139.770 TC 87 13.4033 139.855 4 87 13.3997 139.770 87 971 300 13 288
1946086N12153 1946 23 WP MM BARBARA 1946-03-31 00:00:00 TS 13.6000 139.200 main 1485 1436 O________OOO__ jtwc_wp WP011946 13.6000 139.200 90 2 13.6000 139.200 TC 90 13.6000 139.200 4 90 13.6000 139.200 90 970 300 12 290
1946086N12153 1946 23 WP MM BARBARA 1946-03-31 03:00:00 TS 13.8019 138.635 main 1425 1377 P________PPP__ WP011946 13.8073 138.642 90 2 13.8073 138.642 TC 90 13.7854 138.614 4 90 13.8073 138.642 90 969 300 11 290
1946086N12153 1946 23 WP MM BARBARA 1946-03-31 06:00:00 TS 13.9910 138.091 main 1377 1327 O________OPO__ jtwc_wp WP011946 14.0000 138.100 90 2 14.0000 138.100 TC 90 13.9640 138.062 4 90 14.0000 138.100 90 969 300 11 288
1946086N12153 1946 23 WP MM BARBARA 1946-03-31 09:00:00 TS 14.1519 137.545 main 1318 1267 P________PPP__ WP011946 14.1574 137.550 90 2 14.1574 137.550 TC 90 14.1355 137.529 4 90 14.1574 137.550 90 968 300 11 286
1946086N12153 1946 23 WP MM BARBARA 1946-03-31 12:00:00 TS 14.3000 137.000 main 1267 1216 O________OOO__ jtwc_wp WP011946 14.3000 137.000 90 2 14.3000 137.000 TC 90 14.3000 137.000 4 90 14.3000 137.000 90 968 300 11 286
1946086N12153 1946 23 WP MM BARBARA 1946-03-31 15:00:00 TS 14.4536 136.452 main 1218 1157 P________PPP__ WP011946 14.4499 136.450 90 2 14.4499 136.450 TC 90 14.4648 136.458 4 90 14.4499 136.450 90 968 300 11 286
1946086N12153 1946 23 WP MM BARBARA 1946-03-31 18:00:00 TS 14.6054 135.904 main 1157 1107 O________OPO__ jtwc_wp WP011946 14.6000 135.900 90 2 14.6000 135.900 TC 90 14.6218 135.915 4 90 14.6000 135.900 90 968 300 11 286
1946086N12153 1946 23 WP MM BARBARA 1946-03-31 21:00:00 TS 14.7600 135.359 main 1109 1050 P________PPP__ WP011946 14.7573 135.357 90 2 14.7573 135.357 TC 90 14.7679 135.364 4 90 14.7573 135.357 90 968 300 11 285
1946086N12153 1946 23 WP MM BARBARA 1946-04-01 00:00:00 TS 14.9000 134.800 main 1050 991 O________OOO__ jtwc_wp WP011946 14.9000 134.800 90 2 14.9000 134.800 TC 90 14.9000 134.800 4 90 14.9000 134.800 90 968 300 11 283
1946086N12153 1946 23 WP MM BARBARA 1946-04-01 03:00:00 TS 15.0091 134.210 main 991 933 P________PPP__ WP011946 15.0074 134.207 90 2 15.0074 134.207 TC 90 15.0140 134.218 4 88 15.0074 134.207 90 968 330 12 280
1946086N12153 1946 23 WP MM BARBARA 1946-04-01 06:00:00 TS 15.1036 133.606 main 933 877 O________OPO__ jtwc_wp WP011946 15.1000 133.600 90 2 15.1000 133.600 TC 90 15.1145 133.622 4 87 15.1000 133.600 90 969 360 12 279
1946086N12153 1946 23 WP MM BARBARA 1946-04-01 09:00:00 TS 15.2018 133.004 main 877 822 P________PPP__ WP011946 15.1998 133.000 87 2 15.1998 133.000 TC 87 15.2077 133.015 4 86 15.1998 133.000 87 969 360 12 280
1946086N12153 1946 23 WP MM BARBARA 1946-04-01 12:00:00 TS 15.3000 132.400 main 822 769 O________OOO__ jtwc_wp WP011946 15.3000 132.400 85 2 15.3000 132.400 TC 85 15.3000 132.400 4 85 15.3000 132.400 85 970 360 12 280
1946086N12153 1946 23 WP MM BARBARA 1946-04-01 15:00:00 TS 15.4008 131.797 main 769 717 P________PPP__ WP011946 15.3998 131.807 85 2 15.3998 131.807 TC 85 15.4039 131.766 4 83 15.3998 131.807 85 971 360 12 280
1946086N12153 1946 23 WP MM BARBARA 1946-04-01 18:00:00 TS 15.5018 131.182 main 717 669 O________OPO__ jtwc_wp WP011946 15.5000 131.200 85 2 15.5000 131.200 TC 85 15.5074 131.128 4 82 15.5000 131.200 85 972 360 12 279
1946086N12153 1946 23 WP MM BARBARA 1946-04-01 21:00:00 TS 15.6018 130.532 main 660 615 P________PPP__ WP011946 15.6000 130.542 82 1 15.6000 130.542 TC 82 15.6071 130.500 4 81 15.6000 130.542 82 972 360 13 279
1946086N12153 1946 23 WP MM BARBARA 1946-04-02 00:00:00 TS 15.7000 129.900 main 615 578 O________OOO__ jtwc_wp WP011946 15.7000 129.900 80 1 15.7000 129.900 TC 80 15.7000 129.900 4 80 15.7000 129.900 80 973 360 12 280
1946086N12153 1946 23 WP MM BARBARA 1946-04-02 03:00:00 TS 15.8009 129.330 main 568 523 P________PPP__ WP011946 15.8073 129.327 80 1 15.8073 129.327 TC 80 15.7816 129.338 4 78 15.8073 129.327 80 973 330 11 280
1946086N12153 1946 23 WP MM BARBARA 1946-04-02 06:00:00 TS 15.8892 128.801 main 523 475 O________OPO__ jtwc_wp WP011946 15.9000 128.800 80 1 15.9000 128.800 TC 80 15.8567 128.805 4 77 15.9000 128.800 80 973 300 10 278
1946086N12153 1946 23 WP MM BARBARA 1946-04-02 09:00:00 TS 15.9445 128.293 main 475 434 P________PPP__ WP011946 15.9498 128.292 77 1 15.9498 128.292 TC 77 15.9286 128.294 4 76 15.9498 128.292 77 973 300 10 277
1946086N12153 1946 23 WP MM BARBARA 1946-04-02 12:00:00 TS 16.0000 127.800 main 434 397 O________OOO__ jtwc_wp WP011946 16.0000 127.800 75 1 16.0000 127.800 TC 75 16.0000 127.800 4 75 16.0000 127.800 75 974 300 10 279
1946086N12153 1946 23 WP MM BARBARA 1946-04-02 15:00:00 TS 16.0946 127.295 main 397 364 P________PPP__ WP011946 16.0999 127.293 75 1 16.0999 127.293 TC 75 16.0787 127.302 4 75 16.0999 127.293 75 974 300 10 281
1946086N12153 1946 23 WP MM BARBARA 1946-04-02 18:00:00 TS 16.1893 126.805 main 364 333 O________OPO__ jtwc_wp WP011946 16.2000 126.800 75 1 16.2000 126.800 TC 75 16.1571 126.820 4 75 16.2000 126.800 75 975 300 9 280
1946086N12153 1946 23 WP MM BARBARA 1946-04-02 21:00:00 TS 16.2510 126.345 main 335 309 P________PPP__ WP011946 16.2574 126.342 75 1 16.2574 126.342 TC 75 16.2319 126.353 4 75 16.2574 126.342 75 976 330 9 277
1946086N12153 1946 23 WP MM BARBARA 1946-04-03 00:00:00 TS 16.3000 125.900 main 309 287 O________OOO__ jtwc_wp WP011946 16.3000 125.900 75 1 16.3000 125.900 TC 75 16.3000 125.900 4 75 16.3000 125.900 75 977 360 9 277
1946086N12153 1946 23 WP MM BARBARA 1946-04-03 03:00:00 TS 16.3506 125.447 main 293 272 P________PPP__ WP011946 16.3499 125.442 75 1 16.3499 125.442 TC 75 16.3527 125.460 4 75 16.3499 125.442 75 977 330 9 277
1946086N12153 1946 23 WP MM BARBARA 1946-04-03 06:00:00 TS 16.3999 125.009 main 272 230 O________OPO__ jtwc_wp WP011946 16.4000 125.000 75 1 16.4000 125.000 TC 75 16.3995 125.035 4 75 16.4000 125.000 75 978 300 8 277
1946086N12153 1946 23 WP MM BARBARA 1946-04-03 09:00:00 TS 16.4490 124.604 main 230 186 P________PPP__ WP011946 16.4498 124.600 75 1 16.4498 124.600 TC 75 16.4465 124.617 4 75 16.4498 124.600 75 978 300 8 277
1946086N12153 1946 23 WP MM BARBARA 1946-04-03 12:00:00 TS 16.5000 124.200 main 186 145 O________OOO__ jtwc_wp WP011946 16.5000 124.200 75 1 16.5000 124.200 TC 75 16.5000 124.200 4 75 16.5000 124.200 75 979 300 8 276
1946086N12153 1946 23 WP MM BARBARA 1946-04-03 15:00:00 TS 16.5386 123.755 main 145 91 P________PPP__ WP011946 16.5425 123.750 75 1 16.5425 123.750 TC 75 16.5270 123.770 4 75 16.5425 123.750 75 979 300 9 276
1946086N12153 1946 23 WP MM BARBARA 1946-04-03 18:00:00 TS 16.5918 123.310 main 91 48 O________OPO__ jtwc_wp WP011946 16.6000 123.300 75 1 16.6000 123.300 TC 75 16.5673 123.341 4 75 16.6000 123.300 75 980 300 8 278
1946086N12153 1946 23 WP MM BARBARA 1946-04-03 21:00:00 TS 16.6589 122.910 main 48 10 P________PPP__ WP011946 16.6623 122.907 75 1 16.6623 122.907 TC 75 16.6489 122.917 4 75 16.6623 122.907 75 980 360 8 285
1946086N12153 1946 23 WP MM BARBARA 1946-04-04 00:00:00 TS 16.8000 122.500 main 10 0 O________OOO__ jtwc_wp WP011946 16.8000 122.500 75 1 16.8000 122.500 TC 75 16.8000 122.500 4 75 16.8000 122.500 75 981 420 10 295
1946086N12153 1946 23 WP MM BARBARA 1946-04-04 03:00:00 TS 17.0542 122.004 main 0 0 P________PPP__ WP011946 17.0627 121.985 72 1 17.0627 121.985 TC 72 17.0289 122.061 4 72 17.0627 121.985 72 981 420 11 302
1946086N12153 1946 23 WP MM BARBARA 1946-04-04 06:00:00 TS 17.3826 121.533 main 0 0 O________OPO__ jtwc_wp WP011946 17.4000 121.500 70 1 17.4000 121.500 TC 70 17.3302 121.633 4 70 17.4000 121.500 70 982 420 10 310
1946086N12153 1946 23 WP MM BARBARA 1946-04-04 09:00:00 TS 17.7127 121.181 main 0 0 P________PPP__ WP011946 17.7198 121.162 67 1 17.7198 121.162 TC 67 17.6915 121.239 4 67 17.7198 121.162 67 982 390 9 320
1946086N12153 1946 23 WP MM BARBARA 1946-04-04 12:00:00 TS 18.1000 120.900 main 0 0 O________OOO__ jtwc_wp WP011946 18.1000 120.900 65 1 18.1000 120.900 TC 65 18.1000 120.900 4 65 18.1000 120.900 65 983 360 10 327
1946086N12153 1946 23 WP MM BARBARA 1946-04-04 15:00:00 TS 18.5655 120.606 main 21 21 P________PPP__ WP011946 18.5850 120.628 65 1 18.5850 120.628 TC 65 18.5071 120.543 4 65 18.5850 120.628 65 983 360 11 332
1946086N12153 1946 23 WP MM BARBARA 1946-04-04 18:00:00 TS 19.0648 120.364 main 70 70 O________OPO__ jtwc_wp WP011946 19.1000 120.400 65 1 19.1000 120.400 TC 65 18.9593 120.256 4 65 19.1000 120.400 65 984 360 10 334
1946086N12153 1946 23 WP MM BARBARA 1946-04-04 21:00:00 TS 19.4985 120.132 main 124 124 P________PPP__ WP011946 19.5123 120.146 65 1 19.5123 120.146 TC 65 19.4568 120.090 4 65 19.5123 120.146 65 984 330 10 345
1946086N12153 1946 23 WP MM BARBARA 1946-04-05 00:00:00 TS 20.0000 120.100 main 172 137 O________OOO__ jtwc_wp WP011946 20.0000 120.100 65 1 20.0000 120.100 TC 65 20.0000 120.100 4 65 20.0000 120.100 65 985 300 13 13
1946086N12153 1946 23 WP MM BARBARA 1946-04-05 03:00:00 TS 20.7128 120.430 main 137 55 P________PPP__ WP011946 20.7428 120.466 62 0 20.7428 120.466 TC 62 20.6226 120.322 4 62 20.7428 120.466 62 985 270 16 28
1946086N12153 1946 23 WP MM BARBARA 1946-04-05 06:00:00 TS 21.4451 120.930 main 55 30 O________OPO__ jtwc_wp WP011946 21.5000 121.000 60 0 21.5000 121.000 TC 60 21.2803 120.721 4 60 21.5000 121.000 60 986 240 16 33
1946086N12153 1946 23 WP MM BARBARA 1946-04-05 09:00:00 TS 22.0141 121.343 main 41 41 P________PPP__ WP011946 22.0446 121.378 57 0 22.0446 121.378 TC 57 21.9227 121.235 4 57 22.0446 121.378 57 986 240 13 37
1946086N12153 1946 23 WP MM BARBARA 1946-04-05 12:00:00 TS 22.5000 121.800 main 75 75 O________OOO__ jtwc_wp WP011946 22.5000 121.800 55 0 22.5000 121.800 TC 55 22.5000 121.800 2 55 22.5000 121.800 55 987 240 14 45
1946086N12153 1946 23 WP MM BARBARA 1946-04-05 15:00:00 TS 22.9791 122.379 main 102 102 P________PPP__ WP011946 22.9802 122.385 55 0 22.9802 122.385 TC 55 22.9759 122.362 2 53 22.9802 122.385 55 987 240 14 51
1946086N12153 1946 23 WP MM BARBARA 1946-04-05 18:00:00 TS 23.3927 122.981 main 156 156 O________OPO__ jtwc_wp WP011946 23.4000 123.000 55 0 23.4000 123.000 TC 55 23.3657 122.913 2 52 23.4000 123.000 55 988 240 13 52
1946086N12153 1946 23 WP MM BARBARA 1946-04-05 21:00:00 TS 23.7485 123.468 main 185 180 P________PPP__ WP011946 23.7664 123.455 52 0 23.7664 123.455 TC 52 23.6978 123.458 2 51 23.7275 123.530 52 988 210 11 57
1946086N12153 1946 23 WP MM BARBARA 1946-04-06 00:00:00 TS 24.0000 124.000 main 219 219 O________OOO__ jtwc_wp WP011946 24.0000 124.000 50 0 24.0000 124.000 TC 50 24.0000 124.000 2 50 24.0000 124.000 50 989 180 13 73
1946086N12153 1946 23 WP MM BARBARA 1946-04-06 03:00:00 TS 24.1202 124.832 main 297 297 P________P____ WP011946 24.1202 124.832 45 0 24.1202 124.832 TC 45 2 16 90
1946086N12153 1946 23 WP MM BARBARA 1946-04-06 06:00:00 TS 24.0000 125.800 main 399 399 O________O____ jtwc_wp WP011946 24.0000 125.800 40 0 24.0000 125.800 TC 40 2 18 111
1946086N12153 1946 23 WP MM BARBARA 1946-04-06 09:00:00 TS 23.4606 126.678 main 499 499 P________P____ WP011946 23.4606 126.678 40 0 23.4606 126.678 TC 40 2 20 120
1946086N12153 1946 23 WP MM BARBARA 1946-04-06 12:00:00 TS 23.0000 127.700 main 613 613 O________O____ jtwc_wp WP011946 23.0000 127.700 40 0 23.0000 127.700 TC 40 23 98
1946086N12153 1946 23 WP MM BARBARA 1946-04-06 15:00:00 TS 23.1551 129.126 main 746 746 P________P____ WP011946 23.1551 129.126 35 0 23.1551 129.126 TC 35 26 79
1946086N12153 1946 23 WP MM BARBARA 1946-04-06 18:00:00 TS 23.5000 130.500 main 837 816 O________O____ jtwc_wp WP011946 23.5000 130.500 30 -1 23.5000 130.500 TC 30 22 75
1946086N12153 1946 23 WP MM BARBARA 1946-04-06 21:00:00 TS 23.7057 131.404 main 818 810 P________P____ WP011946 23.7057 131.404 27 -1 23.7057 131.404 TC 27 14 78
1946086N12153 1946 23 WP MM BARBARA 1946-04-07 00:00:00 TS 23.8000 132.000 main 814 O________O____ jtwc_wp WP011946 23.8000 132.000 25 -1 23.8000 132.000 TC 25 11 80

Digital Typhoon Data and Search

About IBTrACS Database

This database is a web-friendly format of International Best Track Archive for Climate Stewardship (IBTrACS), a global best track data archive curated by NOAA dating back to 1842.

Updated: 2021-10-08